Time;durP1;ratioP1;P1;durP2;ratioP2;P2;SDS_P1;SDS_P2;PMS_P1;PMS_P2;Temp;Humidity;BMP_temperature;BMP_pressure;BME280_temperature;BME280_humidity;BME280_pressure;Samples;Min_cycle;Max_cycle;Signal;HPM_P1;HPM_P2
2022/02/20 00:01:25;;;;;;;36.57;20.07;;;;;;;10.51;40.61;95234.66;4954579;29;20501;-71
2022/02/20 00:03:52;;;;;;;44.73;22.37;;;;;;;9.97;41.32;95249.44;4954522;29;20490;-70
2022/02/20 00:06:19;;;;;;;42.97;21.50;;;;;;;9.71;42.07;95244.88;4955131;29;20467;-72
2022/02/20 00:08:46;;;;;;;42.80;22.33;;;;;;;10.32;40.86;95242.06;4954791;29;20447;-72
2022/02/20 00:11:13;;;;;;;42.97;21.37;;;;;;;10.30;41.58;95228.41;4954830;29;20434;-70
2022/02/20 00:13:40;;;;;;;51.10;22.83;;;;;;;10.50;40.97;95238.31;4953444;29;21328;-71
2022/02/20 00:16:07;;;;;;;39.87;22.10;;;;;;;10.86;39.71;95243.66;4954530;29;20430;-71
2022/02/20 00:18:34;;;;;;;44.07;21.13;;;;;;;10.97;39.92;95232.22;4953831;29;20951;-71
2022/02/20 00:21:01;;;;;;;48.77;22.90;;;;;;;10.58;40.73;95225.56;4955210;29;20966;-71
2022/02/20 00:23:28;;;;;;;44.00;21.13;;;;;;;10.11;42.18;95224.50;4954701;29;20443;-69
2022/02/20 00:25:55;;;;;;;40.43;21.27;;;;;;;10.34;41.79;95207.75;4954903;29;20541;-71
2022/02/20 00:28:23;;;;;;;43.83;23.00;;;;;;;10.32;41.64;95197.53;4954319;28;20443;-71
2022/02/20 00:30:50;;;;;;;44.00;21.53;;;;;;;10.11;41.93;95216.66;4955759;29;20449;-71
2022/02/20 00:33:18;;;;;;;39.50;20.93;;;;;;;10.02;42.69;95210.22;4956162;29;20451;-69
2022/02/20 00:35:45;;;;;;;44.33;22.77;;;;;;;10.15;42.53;95220.38;4938143;29;20435;-71
2022/02/20 00:38:13;;;;;;;45.97;22.70;;;;;;;10.29;42.00;95205.88;4939028;29;20479;-73
2022/02/20 00:40:40;;;;;;;44.78;21.48;;;;;;;10.38;41.84;95211.47;4954982;29;21025;-69
2022/02/20 00:43:08;;;;;;;45.20;22.48;;;;;;;10.36;41.53;95195.19;4954371;29;20203;-71
2022/02/20 00:45:35;;;;;;;38.80;21.90;;;;;;;10.75;40.75;95217.59;4954223;29;20208;-70
2022/02/20 00:48:02;;;;;;;40.43;22.80;;;;;;;10.82;40.19;95218.19;4954215;29;20454;-70
2022/02/20 00:50:29;;;;;;;42.40;21.40;;;;;;;10.79;40.89;95210.81;4937091;29;20983;-71
2022/02/20 00:52:56;;;;;;;47.67;22.37;;;;;;;10.75;40.82;95214.97;4954563;29;20447;-71
2022/02/20 00:55:25;;;;;;;38.77;21.73;;;;;;;10.85;40.57;95209.84;4937409;29;20474;-71
2022/02/20 00:57:53;;;;;;;42.60;21.67;;;;;;;10.74;40.89;95201.09;4955492;29;21050;-70
2022/02/20 01:00:21;;;;;;;51.30;22.40;;;;;;;10.79;40.63;95201.13;4954571;29;20435;-70
2022/02/20 01:02:47;;;;;;;46.03;22.93;;;;;;;10.60;41.39;95210.38;4955001;29;21048;-72
2022/02/20 01:05:14;;;;;;;45.30;23.07;;;;;;;10.02;42.96;95212.84;4937093;29;20454;-71
2022/02/20 01:07:44;;;;;;;43.80;22.67;;;;;;;10.39;41.35;95195.50;4955081;29;20448;-71
2022/02/20 01:10:14;;;;;;;46.20;21.97;;;;;;;10.78;41.59;95207.44;4953958;29;20435;-74
2022/02/20 01:12:41;;;;;;;41.13;21.53;;;;;;;10.59;41.32;95221.91;4951737;29;20447;-71
2022/02/20 01:15:09;;;;;;;40.60;22.20;;;;;;;10.67;41.38;95218.06;4952798;29;21016;-71
2022/02/20 01:17:36;;;;;;;41.53;22.53;;;;;;;10.34;42.58;95237.38;4936265;29;20451;-71
2022/02/20 01:20:05;;;;;;;45.77;24.17;;;;;;;10.49;41.87;95227.03;4952666;29;20447;-70
2022/02/20 01:22:32;;;;;;;44.30;22.90;;;;;;;10.73;41.77;95222.31;4935500;29;20530;-70
2022/02/20 01:24:59;;;;;;;46.60;22.57;;;;;;;10.79;41.50;95232.59;4935325;29;20842;-72
2022/02/20 01:27:27;;;;;;;42.57;22.97;;;;;;;10.79;41.29;95222.09;4953206;29;20574;-70
2022/02/20 01:29:55;;;;;;;51.53;25.10;;;;;;;10.67;42.10;95234.56;4952221;29;20976;-71
2022/02/20 01:32:21;;;;;;;47.53;23.97;;;;;;;9.79;43.57;95234.03;4953079;29;20506;-71
2022/02/20 01:34:48;;;;;;;48.40;24.37;;;;;;;9.10;45.15;95249.22;4950585;29;20487;-69
2022/02/20 01:37:16;;;;;;;60.17;28.07;;;;;;;9.42;44.00;95222.50;4953395;29;20435;-70
2022/02/20 01:39:43;;;;;;;55.47;27.77;;;;;;;9.57;43.88;95227.97;4935246;28;20452;-71
2022/02/20 01:42:16;;;;;;;55.73;27.10;;;;;;;10.29;42.27;95216.34;4935601;29;20455;-70
2022/02/20 01:44:43;;;;;;;51.00;28.37;;;;;;;10.40;42.12;95218.03;4934713;29;21049;-71
2022/02/20 01:47:13;;;;;;;50.83;25.07;;;;;;;10.36;42.04;95219.56;4952930;29;20494;-71
2022/02/20 01:49:42;;;;;;;54.43;26.67;;;;;;;10.35;42.37;95214.56;4952296;29;20435;-71
2022/02/20 01:52:09;;;;;;;46.63;24.17;;;;;;;10.32;42.12;95215.84;4953060;29;20822;-72
2022/02/20 01:54:38;;;;;;;50.80;25.10;;;;;;;9.66;43.39;95216.06;4935506;29;20458;-71
2022/02/20 01:57:07;;;;;;;49.00;23.50;;;;;;;9.64;43.27;95207.66;4953003;29;20819;-71
2022/02/20 02:00:00;;;;;;;37.43;22.43;;;;;;;9.89;42.47;95190.44;4948267;29;20557;-72
2022/02/20 02:02:42;;;;;;;43.37;22.27;;;;;;;9.93;41.79;95188.13;4953216;29;20978;-71
2022/02/20 02:05:30;;;;;;;44.83;22.80;;;;;;;9.95;42.04;95204.38;4951442;29;20456;-71
2022/02/20 02:07:57;;;;;;;40.33;21.43;;;;;;;10.36;41.71;95203.06;4951090;29;20440;-70
2022/02/20 02:10:47;;;;;;;44.87;22.10;;;;;;;10.39;41.19;95195.50;4950973;29;20439;-71
2022/02/20 02:13:34;;;;;;;39.23;21.83;;;;;;;10.41;41.26;95198.66;4934164;29;20468;-70
2022/02/20 02:16:21;;;;;;;36.53;20.80;;;;;;;10.41;41.49;95192.63;4934865;29;20547;-71
2022/02/20 02:19:07;;;;;;;40.03;21.37;;;;;;;10.50;40.79;95193.75;4952944;29;20451;-72
2022/02/20 02:22:06;;;;;;;37.57;20.43;;;;;;;10.02;41.92;95173.56;4940754;29;20455;-70
2022/02/20 02:24:52;;;;;;;39.93;21.80;;;;;;;10.22;41.40;95168.59;4952006;29;20924;-74
2022/02/20 02:27:32;;;;;;;40.23;22.67;;;;;;;10.56;40.93;95171.81;4936004;29;20487;-73
2022/02/20 02:30:12;;;;;;;47.23;26.30;;;;;;;10.38;41.10;95178.22;4953978;29;20431;-72
2022/02/20 02:32:39;;;;;;;49.20;24.20;;;;;;;10.51;40.63;95151.59;4936059;29;20526;-69
2022/02/20 02:35:10;;;;;;;48.90;24.83;;;;;;;10.80;39.87;95160.00;4953853;29;20448;-71
2022/02/20 02:37:37;;;;;;;45.47;22.57;;;;;;;10.70;40.32;95163.31;4951931;29;20988;-71
2022/02/20 02:40:04;;;;;;;38.80;20.77;;;;;;;10.67;40.53;95137.63;4951646;29;20536;-74
2022/02/20 02:42:31;;;;;;;40.33;20.33;;;;;;;10.82;40.02;95150.06;4934418;29;21042;-72
2022/02/20 02:44:59;;;;;;;34.00;20.00;;;;;;;10.86;39.78;95157.16;4934071;29;20523;-71
2022/02/20 02:47:27;;;;;;;34.80;18.10;;;;;;;10.69;39.50;95158.31;4950417;29;20567;-70
2022/02/20 02:49:55;;;;;;;35.87;18.47;;;;;;;9.92;41.30;95169.03;4934128;29;20629;-71
2022/02/20 02:52:22;;;;;;;29.83;18.13;;;;;;;10.33;41.32;95165.03;4933775;29;20849;-70
2022/02/20 02:54:49;;;;;;;33.63;18.67;;;;;;;10.34;41.31;95148.31;4934115;29;20455;-71
2022/02/20 02:57:16;;;;;;;34.70;19.93;;;;;;;10.46;41.34;95151.56;4949947;29;20565;-70
2022/02/20 02:59:44;;;;;;;47.10;24.57;;;;;;;10.56;40.67;95159.53;4933890;29;20451;-71
2022/02/20 03:02:11;;;;;;;45.17;24.50;;;;;;;10.22;41.34;95160.72;4934234;29;20444;-71
2022/02/20 03:04:38;;;;;;;47.47;25.37;;;;;;;10.49;41.31;95156.28;4949737;29;20470;-70
2022/02/20 03:07:05;;;;;;;49.43;25.57;;;;;;;10.43;40.62;95149.44;4951474;29;20537;-70
2022/02/20 03:09:34;;;;;;;49.80;26.57;;;;;;;10.30;41.46;95152.44;4949770;29;20443;-72
2022/02/20 03:12:01;;;;;;;45.30;25.83;;;;;;;10.26;41.12;95153.97;4951224;29;20451;-71
2022/02/20 03:14:30;;;;;;;53.83;27.87;;;;;;;10.37;41.48;95139.94;4933525;29;20471;-71
2022/02/20 03:16:57;;;;;;;46.93;24.30;;;;;;;10.50;40.96;95139.56;4934347;29;20452;-70
2022/02/20 03:19:24;;;;;;;44.17;23.60;;;;;;;10.54;40.66;95145.88;4951356;29;20459;-69
2022/02/20 03:21:51;;;;;;;40.57;23.30;;;;;;;10.49;41.05;95127.47;4934753;29;20486;-70
2022/02/20 03:24:20;;;;;;;41.77;23.27;;;;;;;10.64;40.94;95151.19;4934260;29;20443;-70
2022/02/20 03:26:49;;;;;;;41.53;22.33;;;;;;;10.08;41.47;95143.81;4949996;29;20956;-71
2022/02/20 03:29:21;;;;;;;36.00;19.90;;;;;;;9.95;42.34;95155.44;4933198;29;20456;-71
2022/02/20 03:31:48;;;;;;;35.07;19.00;;;;;;;10.19;41.25;95137.66;4951266;29;20575;-71
2022/02/20 03:34:15;;;;;;;40.87;20.93;;;;;;;10.20;41.61;95160.19;4950861;29;20461;-71
2022/02/20 03:36:47;;;;;;;34.63;18.93;;;;;;;10.10;41.73;95131.28;4934011;29;21037;-71
2022/02/20 03:39:25;;;;;;;38.03;21.53;;;;;;;10.08;42.24;95125.47;4933332;29;20450;-71
2022/02/20 03:41:52;;;;;;;39.20;20.60;;;;;;;10.28;41.78;95136.19;4933926;29;20448;-72
2022/02/20 03:44:39;;;;;;;35.10;20.00;;;;;;;10.41;41.13;95130.56;4950628;29;20451;-71
2022/02/20 03:47:13;;;;;;;34.83;18.47;;;;;;;9.70;42.29;95105.44;4950670;29;20474;-72
2022/02/20 03:49:40;;;;;;;37.43;19.63;;;;;;;10.27;42.08;95136.44;4949961;29;20901;-69
2022/02/20 03:52:25;;;;;;;32.90;18.53;;;;;;;10.46;40.67;95171.72;4933767;29;20966;-72
2022/02/20 03:54:53;;;;;;;30.20;17.20;;;;;;;9.90;41.30;95144.13;4933962;29;20447;-71
2022/02/20 03:57:22;;;;;;;36.10;18.73;;;;;;;9.89;42.40;95172.13;4953152;29;20539;-71
2022/02/20 04:00:21;;;;;;;31.17;16.30;;;;;;;10.11;42.03;95183.41;4923010;29;20458;-70
2022/02/20 04:03:17;;;;;;;35.57;17.77;;;;;;;10.42;41.65;95181.91;4934857;28;20514;-70
2022/02/20 04:05:48;;;;;;;36.77;18.70;;;;;;;10.55;41.22;95186.75;4937389;29;20447;-70
2022/02/20 04:08:15;;;;;;;38.40;21.47;;;;;;;10.46;40.91;95195.28;4954479;29;20620;-70
2022/02/20 04:10:48;;;;;;;35.57;19.43;;;;;;;10.66;40.88;95222.50;4937108;29;20507;-70
2022/02/20 04:13:23;;;;;;;36.30;19.77;;;;;;;10.54;40.75;95203.53;4933505;29;20604;-70
2022/02/20 04:15:52;;;;;;;38.17;20.87;;;;;;;10.86;40.71;95220.06;4933862;29;20448;-71
2022/02/20 04:18:28;;;;;;;42.30;24.20;;;;;;;10.92;40.62;95211.22;4933714;29;20540;-71
2022/02/20 04:21:24;;;;;;;50.07;26.37;;;;;;;10.68;41.03;95220.41;4927797;29;20481;-71
2022/02/20 04:23:58;;;;;;;61.73;36.80;;;;;;;10.56;40.93;95217.16;4949168;29;20531;-71
2022/02/20 04:26:26;;;;;;;65.50;35.97;;;;;;;10.67;41.20;95242.44;4933619;29;21008;-72
2022/02/20 04:28:53;;;;;;;61.93;34.63;;;;;;;10.77;41.26;95250.38;4917483;29;20452;-72
2022/02/20 04:31:20;;;;;;;65.77;36.60;;;;;;;10.74;41.07;95250.88;4934724;29;20429;-71
2022/02/20 04:33:52;;;;;;;54.13;33.00;;;;;;;9.83;42.21;95256.06;4917751;29;20475;-70
2022/02/20 04:36:19;;;;;;;57.70;31.80;;;;;;;10.20;42.00;95262.31;4933823;29;20508;-71
2022/02/20 04:38:52;;;;;;;58.43;33.10;;;;;;;10.45;41.41;95252.16;4949150;29;20546;-70
2022/02/20 04:41:21;;;;;;;53.57;31.03;;;;;;;10.41;41.24;95269.41;4949000;29;20472;-71
2022/02/20 04:43:49;;;;;;;57.37;30.73;;;;;;;10.15;41.22;95272.75;4933121;29;21040;-71
2022/02/20 04:46:17;;;;;;;56.40;29.20;;;;;;;9.91;41.92;95281.81;4933353;29;20444;-71
2022/02/20 04:48:44;;;;;;;55.27;28.90;;;;;;;10.05;41.71;95283.06;4934001;29;20464;-70
2022/02/20 04:51:35;;;;;;;57.55;30.13;;;;;;;9.96;42.30;95285.28;4934067;29;20451;-70
2022/02/20 04:54:04;;;;;;;57.33;30.10;;;;;;;9.84;42.53;95299.50;4932552;29;20291;-70
2022/02/20 04:56:32;;;;;;;55.70;30.87;;;;;;;9.80;43.07;95282.69;4917468;29;20998;-71
2022/02/20 04:59:00;;;;;;;61.80;31.33;;;;;;;10.02;41.99;95278.28;4931840;29;20451;-70
2022/02/20 05:01:41;;;;;;;59.77;30.23;;;;;;;10.07;42.09;95281.00;4918985;29;20474;-70
2022/02/20 05:04:22;;;;;;;52.88;27.90;;;;;;;10.10;42.25;95275.28;4932547;29;20444;-70
2022/02/20 05:06:52;;;;;;;54.50;29.40;;;;;;;10.27;42.12;95285.72;4932491;29;20315;-70
2022/02/20 05:09:25;;;;;;;53.97;29.42;;;;;;;10.27;42.18;95275.25;4932402;29;20440;-73
2022/02/20 05:12:01;;;;;;;52.83;30.03;;;;;;;10.39;41.69;95279.31;4948884;29;20691;-72
2022/02/20 05:14:28;;;;;;;62.47;30.83;;;;;;;10.10;42.48;95278.72;4931634;29;20472;-71
2022/02/20 05:17:04;;;;;;;57.13;30.63;;;;;;;9.94;43.34;95268.25;4932694;29;20488;-70
2022/02/20 05:19:46;;;;;;;58.30;31.93;;;;;;;10.10;42.38;95256.97;4932689;29;20452;-70
2022/02/20 05:22:13;;;;;;;59.33;32.33;;;;;;;10.07;42.71;95252.97;4932743;29;20449;-71
2022/02/20 05:24:46;;;;;;;67.07;32.00;;;;;;;9.96;43.06;95258.34;4933957;29;20438;-72
2022/02/20 05:27:14;;;;;;;60.07;31.47;;;;;;;10.32;42.49;95286.56;4932383;29;20479;-70
2022/02/20 05:29:42;;;;;;;60.53;31.80;;;;;;;9.93;42.98;95291.00;4948340;29;20443;-70
2022/02/20 05:32:11;;;;;;;53.17;30.80;;;;;;;9.88;42.93;95277.06;4932925;29;20893;-69
2022/02/20 05:34:57;;;;;;;62.17;31.80;;;;;;;9.47;44.20;95311.53;4931914;29;20521;-71
2022/02/20 05:37:28;;;;;;;61.67;32.87;;;;;;;10.17;42.98;95307.34;4932841;29;20516;-70
2022/02/20 05:39:56;;;;;;;57.07;31.67;;;;;;;9.52;43.37;95288.06;4949463;29;20543;-70
2022/02/20 05:42:24;;;;;;;51.87;29.23;;;;;;;9.19;44.84;95284.44;4935445;29;20448;-71
2022/02/20 05:45:06;;;;;;;47.77;27.33;;;;;;;9.63;44.08;95295.03;4933657;29;20441;-70
2022/02/20 05:47:34;;;;;;;52.07;27.40;;;;;;;9.86;43.40;95300.06;4934553;29;20500;-71
2022/02/20 05:50:05;;;;;;;46.10;25.80;;;;;;;9.89;43.43;95320.53;4934773;29;20444;-71
2022/02/20 05:52:33;;;;;;;42.77;23.57;;;;;;;9.74;43.85;95317.69;4937810;29;20837;-71
2022/02/20 05:55:00;;;;;;;45.97;24.45;;;;;;;10.06;43.56;95321.28;4954886;29;20491;-71
2022/02/20 05:57:44;;;;;;;48.53;26.40;;;;;;;10.25;43.05;95319.22;4938769;29;20262;-71
2022/02/20 06:00:15;;;;;;;43.33;25.67;;;;;;;10.41;42.12;95303.44;4936180;29;20440;-72
2022/02/20 06:02:55;;;;;;;44.90;24.10;;;;;;;10.47;42.22;95286.75;4933624;29;20444;-70
2022/02/20 06:05:42;;;;;;;42.63;24.33;;;;;;;10.50;41.85;95296.75;4932924;29;20963;-72
2022/02/20 06:08:24;;;;;;;40.23;23.57;;;;;;;10.44;42.13;95318.66;4931382;29;20586;-71
2022/02/20 06:10:59;;;;;;;43.20;23.40;;;;;;;9.59;43.35;95296.53;4933277;29;21006;-71
2022/02/20 06:13:41;;;;;;;42.50;22.77;;;;;;;9.75;43.62;95295.72;4931030;29;20516;-72
2022/02/20 06:16:28;;;;;;;38.93;21.13;;;;;;;9.62;43.75;95262.03;4926008;29;20459;-70
2022/02/20 06:19:03;;;;;;;41.77;23.30;;;;;;;10.03;43.53;95275.47;4931626;29;20447;-69
2022/02/20 06:21:50;;;;;;;40.93;22.73;;;;;;;10.40;42.53;95278.28;4933387;29;20452;-71
2022/02/20 06:24:35;;;;;;;40.40;23.03;;;;;;;10.58;41.97;95277.97;4933102;29;20480;-70
2022/02/20 06:27:06;;;;;;;41.77;22.67;;;;;;;10.76;41.67;95269.00;4930690;29;20480;-71
2022/02/20 06:29:34;;;;;;;72.77;45.40;;;;;;;10.56;42.16;95264.34;4931611;29;20444;-71
2022/02/20 06:32:01;;;;;;;37.63;20.67;;;;;;;10.74;42.03;95274.47;4931649;29;20445;-70
2022/02/20 06:34:31;;;;;;;35.87;21.27;;;;;;;10.50;42.52;95283.66;4947807;29;20476;-71
2022/02/20 06:36:59;;;;;;;41.90;21.53;;;;;;;10.51;42.47;95273.97;4933121;29;20876;-71
2022/02/20 06:39:27;;;;;;;41.40;21.47;;;;;;;10.66;41.52;95259.19;4931026;29;21282;-70
2022/02/20 06:41:54;;;;;;;40.67;20.87;;;;;;;10.86;40.77;95256.75;4931661;29;20445;-72
2022/02/20 06:44:21;;;;;;;42.77;21.47;;;;;;;11.12;41.12;95253.34;4930732;29;20484;-70
2022/02/20 06:47:26;;;;;;;38.50;21.47;;;;;;;11.49;40.56;95289.31;4932324;29;20523;-70
2022/02/20 06:50:21;;;;;;;43.37;21.53;;;;;;;11.52;40.74;95288.78;4930784;29;20460;-70
2022/02/20 06:53:06;;;;;;;35.63;20.33;;;;;;;11.46;41.31;95305.56;4932544;29;20455;-71
2022/02/20 06:55:41;;;;;;;37.13;21.03;;;;;;;11.43;41.23;95303.41;4930570;29;21012;-72
2022/02/20 06:58:12;;;;;;;38.47;22.50;;;;;;;11.39;41.63;95305.75;4932522;29;20448;-70
2022/02/20 07:00:42;;;;;;;43.73;23.83;;;;;;;11.46;42.03;95295.06;4932057;29;20858;-71
2022/02/20 07:03:11;;;;;;;61.13;30.40;;;;;;;11.55;41.89;95298.81;4932225;29;20483;-71
2022/02/20 07:05:40;;;;;;;65.27;37.63;;;;;;;11.60;41.85;95296.22;4930339;29;20480;-70
2022/02/20 07:08:07;;;;;;;149.73;92.23;;;;;;;11.37;41.62;95286.06;4932499;29;20492;-70
2022/02/20 07:10:34;;;;;;;184.03;103.87;;;;;;;11.37;41.95;95270.34;4932104;29;20527;-70
2022/02/20 07:13:04;;;;;;;163.47;96.83;;;;;;;11.33;42.50;95269.25;4933536;29;20459;-69
2022/02/20 07:15:30;;;;;;;143.80;84.83;;;;;;;11.43;42.15;95279.81;4950373;29;20960;-69
2022/02/20 07:17:57;;;;;;;132.70;78.37;;;;;;;11.54;42.43;95294.59;4951525;29;20440;-71
2022/02/20 07:20:24;;;;;;;99.70;60.20;;;;;;;11.40;42.41;95278.50;4951016;29;20451;-71
2022/02/20 07:22:51;;;;;;;94.23;53.40;;;;;;;11.45;43.01;95283.78;4951651;29;20982;-70
2022/02/20 07:25:19;;;;;;;95.10;55.50;;;;;;;11.39;42.13;95263.78;4951282;29;20434;-71
2022/02/20 07:27:53;;;;;;;94.93;59.60;;;;;;;11.32;42.79;95272.91;4951552;29;20474;-71
2022/02/20 07:30:22;;;;;;;97.47;58.03;;;;;;;11.49;42.94;95265.69;4950591;29;20454;-71
2022/02/20 07:32:49;;;;;;;92.00;51.47;;;;;;;11.71;42.44;95258.53;4951819;29;21018;-71
2022/02/20 07:35:18;;;;;;;86.93;48.83;;;;;;;11.58;42.38;95254.47;4952180;29;20501;-71
2022/02/20 07:37:45;;;;;;;81.40;45.50;;;;;;;11.34;43.15;95260.31;4951884;28;20444;-69
2022/02/20 07:40:12;;;;;;;71.10;43.70;;;;;;;11.84;43.02;95265.97;4954665;29;20447;-71
2022/02/20 07:42:42;;;;;;;87.13;46.63;;;;;;;11.90;42.88;95265.72;4955501;29;20976;-69
2022/02/20 07:45:09;;;;;;;72.37;43.77;;;;;;;11.86;42.31;95248.13;4955090;29;20440;-70
2022/02/20 07:47:52;;;;;;;73.27;43.13;;;;;;;11.85;42.87;95264.91;4960437;29;20526;-71
2022/02/20 07:50:26;;;;;;;77.27;43.43;;;;;;;12.03;42.44;95260.03;4961042;29;20447;-71
2022/02/20 07:52:55;;;;;;;72.03;41.40;;;;;;;12.00;42.75;95270.25;4956571;29;20442;-70
2022/02/20 07:55:22;;;;;;;70.47;40.30;;;;;;;12.07;42.37;95260.31;4953889;29;20431;-71
2022/02/20 07:57:50;;;;;;;74.70;43.17;;;;;;;12.27;42.34;95256.97;4953218;29;20446;-72
2022/02/20 08:00:19;;;;;;;71.23;43.50;;;;;;;12.48;42.04;95248.91;4954175;29;20439;-72
2022/02/20 08:02:48;;;;;;;74.40;42.23;;;;;;;12.65;41.43;95231.09;4954951;29;20451;-70
2022/02/20 08:05:15;;;;;;;71.80;41.30;;;;;;;12.70;40.98;95209.28;4953880;29;20446;-72
2022/02/20 08:07:41;;;;;;;67.70;39.53;;;;;;;12.97;40.76;95223.75;4954831;29;20483;-71
2022/02/20 08:10:09;;;;;;;56.03;35.97;;;;;;;12.11;41.78;95229.88;4953790;29;21279;-72
2022/02/20 08:12:36;;;;;;;68.07;41.73;;;;;;;12.09;41.83;95224.06;4954506;29;20439;-72
2022/02/20 08:15:03;;;;;;;75.30;48.43;;;;;;;12.29;42.12;95232.03;4953707;29;20943;-71
2022/02/20 08:17:30;;;;;;;83.73;52.53;;;;;;;12.21;42.04;95229.88;4954033;29;20428;-70
2022/02/20 08:19:57;;;;;;;83.70;53.23;;;;;;;12.32;41.64;95242.03;4954623;29;20459;-70
2022/02/20 08:22:24;;;;;;;82.33;50.03;;;;;;;12.60;41.40;95233.72;4954412;28;20861;-71
2022/02/20 08:24:51;;;;;;;85.83;49.90;;;;;;;12.67;41.13;95243.97;4954634;28;20435;-71
2022/02/20 08:27:18;;;;;;;82.37;50.87;;;;;;;12.76;41.52;95253.72;4952480;28;20471;-74
2022/02/20 08:29:45;;;;;;;71.50;47.10;;;;;;;13.02;41.00;95238.78;4956623;28;20630;-69
2022/02/20 08:32:11;;;;;;;76.03;45.47;;;;;;;12.92;40.97;95231.66;4955570;28;20518;-71
2022/02/20 08:34:38;;;;;;;74.37;47.93;;;;;;;12.90;40.98;95225.88;4952920;28;20840;-69
2022/02/20 08:37:05;;;;;;;83.37;53.30;;;;;;;13.00;40.39;95211.94;4952888;28;20494;-68
2022/02/20 08:39:34;;;;;;;75.33;49.77;;;;;;;12.88;40.68;95204.28;4952859;28;20506;-68
2022/02/20 08:42:02;;;;;;;63.33;41.30;;;;;;;13.01;40.59;95208.28;4952966;28;20444;-72
2022/02/20 08:44:33;;;;;;;65.73;39.87;;;;;;;13.15;40.03;95207.53;4953451;29;20462;-70
2022/02/20 08:47:01;;;;;;;67.43;41.00;;;;;;;12.97;40.35;95207.22;4952762;28;20447;-73
2022/02/20 08:49:31;;;;;;;61.40;39.50;;;;;;;13.08;40.06;95178.03;4934718;29;21238;-71
2022/02/20 08:51:59;;;;;;;61.87;38.30;;;;;;;13.45;39.80;95187.50;4952233;28;20974;-70
2022/02/20 08:54:26;;;;;;;55.67;34.93;;;;;;;13.55;39.47;95200.63;4952549;28;20498;-71
2022/02/20 08:56:53;;;;;;;49.73;31.47;;;;;;;13.67;39.27;95195.84;4953766;29;20494;-73
2022/02/20 08:59:19;;;;;;;49.47;27.07;;;;;;;13.75;38.83;95187.44;4956680;29;20451;-70
2022/02/20 09:01:46;;;;;;;41.70;24.33;;;;;;;13.60;38.99;95200.63;4939614;29;20848;-70
2022/02/20 09:04:13;;;;;;;40.83;25.30;;;;;;;13.59;39.10;95209.59;4956869;29;20451;-70
2022/02/20 09:06:40;;;;;;;43.67;25.50;;;;;;;13.73;38.95;95213.25;4955045;29;20465;-73
2022/02/20 09:09:07;;;;;;;45.17;26.60;;;;;;;13.73;39.04;95205.34;4953291;29;20487;-71
2022/02/20 09:11:38;;;;;;;48.10;30.77;;;;;;;13.44;39.28;95222.75;4952698;29;20443;-70
2022/02/20 09:14:06;;;;;;;51.47;29.83;;;;;;;13.78;38.28;95213.22;4951827;29;20534;-70
2022/02/20 09:16:33;;;;;;;50.77;31.43;;;;;;;13.75;38.91;95208.50;4952958;28;20800;-71
2022/02/20 09:19:03;;;;;;;44.07;27.40;;;;;;;13.43;38.74;95208.03;4952094;29;20994;-71
2022/02/20 09:21:31;;;;;;;52.77;28.30;;;;;;;13.38;38.99;95210.66;4953025;29;20436;-74
2022/02/20 09:23:58;;;;;;;43.90;26.90;;;;;;;13.32;39.59;95219.63;4951945;28;20534;-71
2022/02/20 09:26:26;;;;;;;46.80;27.37;;;;;;;13.39;38.80;95204.34;4937142;29;20431;-70
2022/02/20 09:28:53;;;;;;;43.53;26.10;;;;;;;13.56;38.83;95212.72;4954184;29;20534;-70
2022/02/20 09:31:20;;;;;;;42.27;25.20;;;;;;;13.88;38.22;95202.66;4951521;28;20486;-69
2022/02/20 09:33:47;;;;;;;38.93;22.60;;;;;;;13.98;38.43;95207.91;4951797;28;20959;-72
2022/02/20 09:36:15;;;;;;;32.67;19.67;;;;;;;14.13;38.69;95189.41;4951788;28;20451;-70
2022/02/20 09:38:43;;;;;;;33.20;19.87;;;;;;;14.14;38.78;95181.22;4953161;28;20463;-69
2022/02/20 09:41:11;;;;;;;33.57;20.57;;;;;;;13.81;39.14;95189.78;4952872;29;20428;-74
2022/02/20 09:43:40;;;;;;;34.30;21.17;;;;;;;14.25;38.80;95181.97;4952135;29;20435;-73
2022/02/20 09:46:07;;;;;;;32.47;21.27;;;;;;;14.42;38.33;95181.66;4952781;29;20510;-75
2022/02/20 09:48:36;;;;;;;130.17;95.47;;;;;;;14.80;38.17;95176.41;4951966;29;20495;-73
2022/02/20 09:51:03;;;;;;;36.27;25.37;;;;;;;15.18;36.82;95165.03;4952407;29;20478;-72
2022/02/20 09:53:33;;;;;;;38.77;22.67;;;;;;;15.45;38.39;95187.56;4952494;29;20444;-71
2022/02/20 09:56:01;;;;;;;31.00;22.07;;;;;;;15.59;36.84;95170.78;4952448;29;20978;-72
2022/02/20 09:58:28;;;;;;;29.43;21.50;;;;;;;15.57;36.04;95175.53;4934699;29;20440;-73
2022/02/20 10:01:03;;;;;;;36.40;21.80;;;;;;;15.50;35.90;95171.66;4952487;28;20451;-71
2022/02/20 10:03:34;;;;;;;35.23;21.10;;;;;;;15.60;34.85;95177.63;4951653;29;20957;-73
2022/02/20 10:06:04;;;;;;;36.23;21.53;;;;;;;15.55;35.64;95174.22;4952506;29;20443;-71
2022/02/20 10:08:37;;;;;;;32.57;21.90;;;;;;;15.42;35.46;95164.34;4951833;29;20487;-70
2022/02/20 10:11:13;;;;;;;35.30;22.70;;;;;;;15.33;38.76;95168.63;4951733;29;20849;-73
2022/02/20 10:13:41;;;;;;;46.23;27.63;;;;;;;16.09;35.39;95158.88;4951956;29;20467;-73
2022/02/20 10:16:19;;;;;;;143.13;114.30;;;;;;;16.45;34.62;95151.25;4952544;29;21004;-72
2022/02/20 10:19:03;;;;;;;39.33;23.70;;;;;;;16.07;34.70;95145.13;4951505;29;20440;-73
2022/02/20 10:21:49;;;;;;;35.17;22.40;;;;;;;15.79;35.13;95140.69;4952609;29;20447;-72
2022/02/20 10:24:58;;;;;;;32.67;21.87;;;;;;;15.49;35.40;95138.41;4952036;29;20814;-74
2022/02/20 10:27:53;;;;;;;37.70;22.37;;;;;;;16.11;35.31;95130.28;4951016;29;20444;-78
2022/02/20 10:30:30;;;;;;;33.37;21.17;;;;;;;16.45;34.62;95122.97;4934245;29;20458;-75
2022/02/20 10:33:12;;;;;;;28.60;18.40;;;;;;;16.65;34.30;95114.75;4951970;29;20535;-74
2022/02/20 10:35:42;;;;;;;29.17;18.23;;;;;;;16.99;34.54;95109.97;4950878;29;20538;-76
2022/02/20 10:38:15;;;;;;;28.33;18.33;;;;;;;17.10;33.02;95079.59;4952190;29;20455;-73
2022/02/20 10:40:44;;;;;;;30.57;17.07;;;;;;;17.37;33.06;95083.41;4951045;29;20440;-75
2022/02/20 10:43:33;;;;;;;29.77;18.20;;;;;;;17.74;32.15;95083.22;4951585;29;20448;-73
2022/02/20 10:46:17;;;;;;;31.67;17.27;;;;;;;18.00;32.44;95092.25;4951631;29;20436;-72
2022/02/20 10:48:47;;;;;;;28.33;18.40;;;;;;;17.83;32.83;95078.81;4951011;29;20495;-77
2022/02/20 10:51:18;;;;;;;37.07;21.00;;;;;;;18.08;32.39;95092.34;4951712;29;20482;-74
2022/02/20 10:53:48;;;;;;;118.73;88.93;;;;;;;18.43;32.17;95069.59;4951520;29;20443;-76
2022/02/20 10:56:15;;;;;;;26.70;15.47;;;;;;;18.46;33.25;95069.00;4951860;29;20443;-76
2022/02/20 10:58:51;;;;;;;23.67;14.17;;;;;;;18.49;31.92;95055.13;4951778;29;20493;-76
2022/02/20 11:01:23;;;;;;;22.17;12.40;;;;;;;18.45;30.17;95056.81;4951590;28;20454;-79
2022/02/20 11:03:50;;;;;;;14.57;10.60;;;;;;;18.08;31.11;95059.75;4952096;28;20963;-79
2022/02/20 11:06:18;;;;;;;25.47;13.70;;;;;;;18.49;31.34;95047.16;4951145;28;20446;-77
2022/02/20 11:08:48;;;;;;;20.03;13.37;;;;;;;18.98;31.07;95049.69;4934716;29;20479;-75
2022/02/20 11:14:01;;;;;;;18.97;12.87;;;;;;;18.98;29.86;95028.44;4934142;29;20477;-77
2022/02/20 11:16:31;;;;;;;21.73;12.37;;;;;;;18.97;29.91;95013.63;4955523;29;20448;-76
2022/02/20 11:19:03;;;;;;;19.10;12.47;;;;;;;19.04;30.64;95032.56;4956978;29;20523;-75
2022/02/20 11:21:37;;;;;;;18.87;13.07;;;;;;;19.09;30.69;95037.72;4954568;29;20443;-77
2022/02/20 11:24:06;;;;;;;22.33;13.47;;;;;;;18.24;30.22;95013.22;4951022;29;20810;-76
2022/02/20 11:26:36;;;;;;;23.97;13.53;;;;;;;18.59;31.35;95040.84;4951254;29;20435;-74
2022/02/20 11:29:07;;;;;;;21.77;12.90;;;;;;;18.31;31.75;95034.81;4950892;29;20490;-76
2022/02/20 11:31:34;;;;;;;21.67;13.33;;;;;;;18.12;31.85;95036.81;4951683;29;20835;-75
2022/02/20 11:34:05;;;;;;;19.57;13.73;;;;;;;18.23;31.23;95032.88;4951264;29;20821;-77
2022/02/20 11:36:32;;;;;;;24.07;14.17;;;;;;;17.96;32.31;95025.78;4951248;29;20423;-77
2022/02/20 11:39:11;;;;;;;23.20;14.27;;;;;;;18.03;31.21;95041.25;4951126;29;20543;-70